Airport View

Enter AWOS ICAO identifier for current METAR.

ex. KFNL

KGXY 031656Z VRB05KT 10SM CLR 26/12 A3019 RMK AO2 SLP177 T02610122

3 Jul 2020 17:29

Frequency: 135.175

Phone: 970-352-3511

Other Area AWOS: KFNL - KLMO - KEIK - KDEN

TAF AMD KDEN 031405Z 0314/0418 25010KT P6SM FEW080 FEW150 FM031420 07010KT P6SM FEW080 FEW150 FM031800 03012KT P6SM SCT120 FM032000 30012KT P6SM SCT090 BKN120 TEMPO 0320/0323 VRB25G40KT -TSRA BKN080CB FM032300 15015G24KT P6SM FEW090 SCT120 FM040300 15012KT P6SM SCT120 FM040600 19010KT P6SM SCT120 FM041400 30006KT P6SM FEW120